sensor_id;sensor_type;location;lat;lon;timestamp;P1;durP1;ratioP1;P2;durP2;ratioP2
19032;SDS011;9649;51.042;13.804;2023-03-01T00:02:35;38.93;;;19.17;;
19032;SDS011;9649;51.042;13.804;2023-03-01T00:07:38;41.13;;;19.47;;
19032;SDS011;9649;51.042;13.804;2023-03-01T00:12:42;37.70;;;20.17;;
19032;SDS011;9649;51.042;13.804;2023-03-01T00:17:45;45.73;;;19.77;;
19032;SDS011;9649;51.042;13.804;2023-03-01T00:22:48;37.43;;;19.03;;
19032;SDS011;9649;51.042;13.804;2023-03-01T00:27:52;36.20;;;17.73;;
19032;SDS011;9649;51.042;13.804;2023-03-01T00:32:58;38.83;;;17.60;;
19032;SDS011;9649;51.042;13.804;2023-03-01T00:38:01;34.70;;;16.83;;
19032;SDS011;9649;51.042;13.804;2023-03-01T00:43:06;33.53;;;16.47;;
19032;SDS011;9649;51.042;13.804;2023-03-01T00:48:09;35.93;;;18.20;;
19032;SDS011;9649;51.042;13.804;2023-03-01T00:53:11;32.97;;;17.43;;
19032;SDS011;9649;51.042;13.804;2023-03-01T00:58:15;37.80;;;17.07;;
19032;SDS011;9649;51.042;13.804;2023-03-01T01:03:18;41.07;;;17.60;;
19032;SDS011;9649;51.042;13.804;2023-03-01T01:08:21;34.07;;;17.03;;
19032;SDS011;9649;51.042;13.804;2023-03-01T01:13:25;34.87;;;17.10;;
19032;SDS011;9649;51.042;13.804;2023-03-01T01:18:28;32.50;;;17.03;;
19032;SDS011;9649;51.042;13.804;2023-03-01T01:23:31;39.73;;;17.13;;
19032;SDS011;9649;51.042;13.804;2023-03-01T01:28:35;40.07;;;18.40;;
19032;SDS011;9649;51.042;13.804;2023-03-01T01:33:38;41.50;;;18.70;;
19032;SDS011;9649;51.042;13.804;2023-03-01T01:38:40;39.77;;;18.23;;
19032;SDS011;9649;51.042;13.804;2023-03-01T01:43:46;39.83;;;17.63;;
19032;SDS011;9649;51.042;13.804;2023-03-01T01:48:52;38.70;;;17.80;;
19032;SDS011;9649;51.042;13.804;2023-03-01T01:53:59;37.87;;;18.40;;
19032;SDS011;9649;51.042;13.804;2023-03-01T01:59:04;38.67;;;18.23;;
19032;SDS011;9649;51.042;13.804;2023-03-01T02:04:07;41.80;;;18.37;;
19032;SDS011;9649;51.042;13.804;2023-03-01T02:09:11;35.20;;;17.60;;
19032;SDS011;9649;51.042;13.804;2023-03-01T02:14:17;36.23;;;18.33;;
19032;SDS011;9649;51.042;13.804;2023-03-01T02:19:24;38.70;;;18.30;;
19032;SDS011;9649;51.042;13.804;2023-03-01T02:24:36;39.50;;;17.93;;
19032;SDS011;9649;51.042;13.804;2023-03-01T02:29:50;37.23;;;18.00;;
19032;SDS011;9649;51.042;13.804;2023-03-01T02:34:52;36.93;;;16.97;;
19032;SDS011;9649;51.042;13.804;2023-03-01T02:39:58;41.77;;;17.80;;
19032;SDS011;9649;51.042;13.804;2023-03-01T02:45:06;37.77;;;17.37;;
19032;SDS011;9649;51.042;13.804;2023-03-01T02:50:15;37.13;;;17.00;;
19032;SDS011;9649;51.042;13.804;2023-03-01T02:55:31;38.73;;;17.57;;
19032;SDS011;9649;51.042;13.804;2023-03-01T03:00:35;33.83;;;16.27;;
19032;SDS011;9649;51.042;13.804;2023-03-01T03:05:41;36.00;;;17.67;;
19032;SDS011;9649;51.042;13.804;2023-03-01T03:10:44;35.33;;;17.17;;
19032;SDS011;9649;51.042;13.804;2023-03-01T03:15:48;37.10;;;16.30;;
19032;SDS011;9649;51.042;13.804;2023-03-01T03:20:51;36.07;;;16.47;;
19032;SDS011;9649;51.042;13.804;2023-03-01T03:25:55;34.50;;;16.70;;
19032;SDS011;9649;51.042;13.804;2023-03-01T03:30:59;38.47;;;16.57;;
19032;SDS011;9649;51.042;13.804;2023-03-01T03:36:05;36.23;;;16.57;;
19032;SDS011;9649;51.042;13.804;2023-03-01T03:41:14;39.40;;;16.47;;
19032;SDS011;9649;51.042;13.804;2023-03-01T03:46:18;36.87;;;17.43;;
19032;SDS011;9649;51.042;13.804;2023-03-01T03:51:21;37.43;;;16.97;;
19032;SDS011;9649;51.042;13.804;2023-03-01T03:56:24;40.23;;;18.50;;
19032;SDS011;9649;51.042;13.804;2023-03-01T04:01:30;35.43;;;17.73;;
19032;SDS011;9649;51.042;13.804;2023-03-01T04:06:33;38.80;;;18.50;;
19032;SDS011;9649;51.042;13.804;2023-03-01T04:11:35;38.30;;;18.53;;
19032;SDS011;9649;51.042;13.804;2023-03-01T04:16:41;44.43;;;19.10;;
19032;SDS011;9649;51.042;13.804;2023-03-01T04:21:43;42.37;;;18.90;;
19032;SDS011;9649;51.042;13.804;2023-03-01T04:26:46;41.13;;;18.57;;
19032;SDS011;9649;51.042;13.804;2023-03-01T04:31:51;41.50;;;17.93;;
19032;SDS011;9649;51.042;13.804;2023-03-01T04:36:55;36.93;;;17.97;;
19032;SDS011;9649;51.042;13.804;2023-03-01T04:41:58;38.53;;;18.27;;
19032;SDS011;9649;51.042;13.804;2023-03-01T05:05:40;40.60;;;16.67;;
19032;SDS011;9649;51.042;13.804;2023-03-01T05:11:11;38.80;;;16.93;;
19032;SDS011;9649;51.042;13.804;2023-03-01T05:16:48;32.30;;;16.13;;
19032;SDS011;9649;51.042;13.804;2023-03-01T05:46:44;33.33;;;15.93;;
19032;SDS011;9649;51.042;13.804;2023-03-01T05:52:42;37.23;;;17.77;;
19032;SDS011;9649;51.042;13.804;2023-03-01T06:10:59;35.37;;;16.13;;
19032;SDS011;9649;51.042;13.804;2023-03-01T06:16:25;38.60;;;17.43;;
19032;SDS011;9649;51.042;13.804;2023-03-01T06:22:34;38.57;;;17.93;;
19032;SDS011;9649;51.042;13.804;2023-03-01T07:04:32;36.47;;;17.03;;
19032;SDS011;9649;51.042;13.804;2023-03-01T07:09:36;40.83;;;17.47;;
19032;SDS011;9649;51.042;13.804;2023-03-01T07:14:38;35.93;;;16.47;;
19032;SDS011;9649;51.042;13.804;2023-03-01T07:19:42;37.50;;;16.67;;
19032;SDS011;9649;51.042;13.804;2023-03-01T07:24:46;34.00;;;15.93;;
19032;SDS011;9649;51.042;13.804;2023-03-01T07:29:48;33.33;;;16.57;;
19032;SDS011;9649;51.042;13.804;2023-03-01T07:34:52;36.27;;;17.50;;
19032;SDS011;9649;51.042;13.804;2023-03-01T07:39:55;34.87;;;15.30;;
19032;SDS011;9649;51.042;13.804;2023-03-01T07:44:58;38.00;;;15.53;;
19032;SDS011;9649;51.042;13.804;2023-03-01T07:50:03;29.73;;;13.53;;
19032;SDS011;9649;51.042;13.804;2023-03-01T07:55:06;26.27;;;13.10;;
19032;SDS011;9649;51.042;13.804;2023-03-01T08:00:10;24.17;;;12.33;;
19032;SDS011;9649;51.042;13.804;2023-03-01T08:05:15;24.10;;;12.33;;
19032;SDS011;9649;51.042;13.804;2023-03-01T08:10:18;23.30;;;12.67;;
19032;SDS011;9649;51.042;13.804;2023-03-01T08:15:21;23.40;;;12.73;;
19032;SDS011;9649;51.042;13.804;2023-03-01T08:20:25;24.20;;;12.43;;
19032;SDS011;9649;51.042;13.804;2023-03-01T08:25:28;22.53;;;12.50;;
19032;SDS011;9649;51.042;13.804;2023-03-01T08:30:30;21.90;;;12.80;;
19032;SDS011;9649;51.042;13.804;2023-03-01T08:35:35;21.50;;;12.82;;
19032;SDS011;9649;51.042;13.804;2023-03-01T08:40:37;20.95;;;12.98;;
19032;SDS011;9649;51.042;13.804;2023-03-01T08:45:40;20.45;;;13.07;;
19032;SDS011;9649;51.042;13.804;2023-03-01T08:50:44;19.98;;;12.82;;
19032;SDS011;9649;51.042;13.804;2023-03-01T08:55:47;19.70;;;13.02;;
19032;SDS011;9649;51.042;13.804;2023-03-01T09:00:51;20.48;;;13.32;;
19032;SDS011;9649;51.042;13.804;2023-03-01T09:05:59;19.45;;;13.15;;
19032;SDS011;9649;51.042;13.804;2023-03-01T09:11:03;22.17;;;14.68;;
19032;SDS011;9649;51.042;13.804;2023-03-01T09:16:07;21.58;;;14.40;;
19032;SDS011;9649;51.042;13.804;2023-03-01T09:21:13;19.52;;;13.23;;
19032;SDS011;9649;51.042;13.804;2023-03-01T09:26:25;19.80;;;13.70;;
19032;SDS011;9649;51.042;13.804;2023-03-01T09:31:27;17.48;;;12.77;;
19032;SDS011;9649;51.042;13.804;2023-03-01T09:36:32;22.48;;;13.98;;
19032;SDS011;9649;51.042;13.804;2023-03-01T09:41:42;21.75;;;14.68;;
19032;SDS011;9649;51.042;13.804;2023-03-01T09:46:47;24.05;;;15.07;;
19032;SDS011;9649;51.042;13.804;2023-03-01T09:51:56;18.63;;;13.07;;
19032;SDS011;9649;51.042;13.804;2023-03-01T09:57:05;19.80;;;14.15;;
19032;SDS011;9649;51.042;13.804;2023-03-01T10:02:21;20.63;;;14.43;;
19032;SDS011;9649;51.042;13.804;2023-03-01T10:07:32;19.20;;;14.27;;
19032;SDS011;9649;51.042;13.804;2023-03-01T10:12:44;19.02;;;14.95;;
19032;SDS011;9649;51.042;13.804;2023-03-01T10:17:48;20.38;;;15.20;;
19032;SDS011;9649;51.042;13.804;2023-03-01T10:22:56;19.52;;;14.15;;
19032;SDS011;9649;51.042;13.804;2023-03-01T10:28:00;18.83;;;13.93;;
19032;SDS011;9649;51.042;13.804;2023-03-01T10:33:08;23.05;;;15.65;;
19032;SDS011;9649;51.042;13.804;2023-03-01T10:38:20;23.67;;;14.07;;
19032;SDS011;9649;51.042;13.804;2023-03-01T10:43:23;16.58;;;12.32;;
19032;SDS011;9649;51.042;13.804;2023-03-01T10:48:27;20.13;;;13.45;;
19032;SDS011;9649;51.042;13.804;2023-03-01T10:53:32;15.68;;;11.75;;
19032;SDS011;9649;51.042;13.804;2023-03-01T10:58:37;15.80;;;11.55;;
19032;SDS011;9649;51.042;13.804;2023-03-01T11:03:41;15.02;;;11.95;;
19032;SDS011;9649;51.042;13.804;2023-03-01T11:08:45;18.38;;;12.93;;
19032;SDS011;9649;51.042;13.804;2023-03-01T11:13:50;16.98;;;13.00;;
19032;SDS011;9649;51.042;13.804;2023-03-01T11:18:56;15.38;;;11.98;;
19032;SDS011;9649;51.042;13.804;2023-03-01T11:24:03;14.85;;;12.05;;
19032;SDS011;9649;51.042;13.804;2023-03-01T11:29:13;15.20;;;11.82;;
19032;SDS011;9649;51.042;13.804;2023-03-01T11:34:24;14.57;;;11.05;;
19032;SDS011;9649;51.042;13.804;2023-03-01T11:39:38;17.83;;;11.93;;
19032;SDS011;9649;51.042;13.804;2023-03-01T11:44:45;14.88;;;11.23;;
19032;SDS011;9649;51.042;13.804;2023-03-01T11:55:29;10.25;;;8.23;;
19032;SDS011;9649;51.042;13.804;2023-03-01T12:00:43;12.77;;;9.90;;
19032;SDS011;9649;51.042;13.804;2023-03-01T12:06:06;14.82;;;9.23;;
19032;SDS011;9649;51.042;13.804;2023-03-01T12:11:21;13.15;;;9.88;;
19032;SDS011;9649;51.042;13.804;2023-03-01T12:16:33;16.00;;;11.50;;
19032;SDS011;9649;51.042;13.804;2023-03-01T12:21:51;19.58;;;13.20;;
19032;SDS011;9649;51.042;13.804;2023-03-01T12:27:08;21.95;;;14.00;;
19032;SDS011;9649;51.042;13.804;2023-03-01T12:32:22;18.40;;;13.60;;
19032;SDS011;9649;51.042;13.804;2023-03-01T12:37:39;18.73;;;14.05;;
19032;SDS011;9649;51.042;13.804;2023-03-01T12:42:53;21.52;;;13.88;;
19032;SDS011;9649;51.042;13.804;2023-03-01T12:48:12;19.45;;;13.60;;
19032;SDS011;9649;51.042;13.804;2023-03-01T12:53:27;18.33;;;13.48;;
19032;SDS011;9649;51.042;13.804;2023-03-01T12:58:34;20.40;;;14.52;;
19032;SDS011;9649;51.042;13.804;2023-03-01T13:10:26;21.05;;;14.32;;
19032;SDS011;9649;51.042;13.804;2023-03-01T13:29:11;20.25;;;14.02;;
19032;SDS011;9649;51.042;13.804;2023-03-01T13:53:31;21.67;;;14.38;;
19032;SDS011;9649;51.042;13.804;2023-03-01T13:59:46;22.58;;;14.85;;
19032;SDS011;9649;51.042;13.804;2023-03-01T14:04:57;21.90;;;15.15;;
19032;SDS011;9649;51.042;13.804;2023-03-01T14:10:02;24.75;;;16.25;;
19032;SDS011;9649;51.042;13.804;2023-03-01T14:15:06;24.52;;;15.35;;
19032;SDS011;9649;51.042;13.804;2023-03-01T14:20:20;21.75;;;13.93;;
19032;SDS011;9649;51.042;13.804;2023-03-01T14:25:24;21.85;;;13.43;;
19032;SDS011;9649;51.042;13.804;2023-03-01T14:30:31;19.23;;;13.48;;
19032;SDS011;9649;51.042;13.804;2023-03-01T14:35:38;19.65;;;13.65;;
19032;SDS011;9649;51.042;13.804;2023-03-01T14:40:41;19.38;;;14.07;;
19032;SDS011;9649;51.042;13.804;2023-03-01T14:45:46;21.40;;;14.50;;
19032;SDS011;9649;51.042;13.804;2023-03-01T14:50:53;22.33;;;14.48;;
19032;SDS011;9649;51.042;13.804;2023-03-01T14:55:56;21.95;;;14.25;;
19032;SDS011;9649;51.042;13.804;2023-03-01T15:01:04;23.88;;;14.30;;
19032;SDS011;9649;51.042;13.804;2023-03-01T15:06:11;21.92;;;14.65;;
19032;SDS011;9649;51.042;13.804;2023-03-01T15:11:17;20.90;;;13.38;;
19032;SDS011;9649;51.042;13.804;2023-03-01T15:16:25;19.73;;;12.73;;
19032;SDS011;9649;51.042;13.804;2023-03-01T15:21:32;21.20;;;12.82;;
19032;SDS011;9649;51.042;13.804;2023-03-01T15:26:37;20.08;;;12.15;;
19032;SDS011;9649;51.042;13.804;2023-03-01T15:31:53;19.77;;;12.02;;
19032;SDS011;9649;51.042;13.804;2023-03-01T15:37:00;18.60;;;11.98;;
19032;SDS011;9649;51.042;13.804;2023-03-01T15:42:05;19.13;;;12.20;;
19032;SDS011;9649;51.042;13.804;2023-03-01T15:47:26;17.75;;;11.48;;
19032;SDS011;9649;51.042;13.804;2023-03-01T15:52:33;19.33;;;11.88;;
19032;SDS011;9649;51.042;13.804;2023-03-01T15:57:38;18.08;;;10.82;;
19032;SDS011;9649;51.042;13.804;2023-03-01T16:02:41;17.75;;;10.70;;
19032;SDS011;9649;51.042;13.804;2023-03-01T16:07:46;17.83;;;10.73;;
19032;SDS011;9649;51.042;13.804;2023-03-01T16:12:49;17.00;;;10.00;;
19032;SDS011;9649;51.042;13.804;2023-03-01T16:17:52;17.85;;;11.13;;
19032;SDS011;9649;51.042;13.804;2023-03-01T16:22:58;20.63;;;12.55;;
19032;SDS011;9649;51.042;13.804;2023-03-01T16:28:02;22.37;;;11.67;;
19032;SDS011;9649;51.042;13.804;2023-03-01T16:33:10;20.90;;;12.20;;
19032;SDS011;9649;51.042;13.804;2023-03-01T16:38:33;21.43;;;12.07;;
19032;SDS011;9649;51.042;13.804;2023-03-01T16:43:36;23.03;;;11.17;;
19032;SDS011;9649;51.042;13.804;2023-03-01T16:48:39;22.67;;;12.00;;
19032;SDS011;9649;51.042;13.804;2023-03-01T16:53:43;20.80;;;11.90;;
19032;SDS011;9649;51.042;13.804;2023-03-01T16:58:47;34.10;;;14.60;;
19032;SDS011;9649;51.042;13.804;2023-03-01T17:03:50;33.13;;;15.57;;
19032;SDS011;9649;51.042;13.804;2023-03-01T17:08:56;36.70;;;16.10;;
19032;SDS011;9649;51.042;13.804;2023-03-01T17:13:59;31.57;;;14.57;;
19032;SDS011;9649;51.042;13.804;2023-03-01T17:19:02;23.00;;;11.63;;
19032;SDS011;9649;51.042;13.804;2023-03-01T17:24:06;27.60;;;12.70;;
19032;SDS011;9649;51.042;13.804;2023-03-01T17:29:09;32.43;;;13.77;;
19032;SDS011;9649;51.042;13.804;2023-03-01T17:34:13;27.60;;;14.00;;
19032;SDS011;9649;51.042;13.804;2023-03-01T17:39:21;37.53;;;14.83;;
19032;SDS011;9649;51.042;13.804;2023-03-01T17:44:30;28.70;;;14.53;;
19032;SDS011;9649;51.042;13.804;2023-03-01T17:49:34;31.93;;;13.93;;
19032;SDS011;9649;51.042;13.804;2023-03-01T17:54:39;31.77;;;16.20;;
19032;SDS011;9649;51.042;13.804;2023-03-01T17:59:41;35.03;;;17.03;;
19032;SDS011;9649;51.042;13.804;2023-03-01T18:04:44;32.83;;;17.33;;
19032;SDS011;9649;51.042;13.804;2023-03-01T18:09:49;36.40;;;17.37;;
19032;SDS011;9649;51.042;13.804;2023-03-01T18:14:51;34.17;;;16.70;;
19032;SDS011;9649;51.042;13.804;2023-03-01T18:19:54;34.00;;;18.20;;
19032;SDS011;9649;51.042;13.804;2023-03-01T18:25:00;34.70;;;17.40;;
19032;SDS011;9649;51.042;13.804;2023-03-01T18:30:03;40.73;;;18.77;;
19032;SDS011;9649;51.042;13.804;2023-03-01T18:35:07;34.83;;;17.33;;
19032;SDS011;9649;51.042;13.804;2023-03-01T18:40:11;31.27;;;15.43;;
19032;SDS011;9649;51.042;13.804;2023-03-01T18:45:14;34.50;;;15.63;;
19032;SDS011;9649;51.042;13.804;2023-03-01T18:50:19;33.17;;;16.60;;
19032;SDS011;9649;51.042;13.804;2023-03-01T18:55:25;36.50;;;18.13;;
19032;SDS011;9649;51.042;13.804;2023-03-01T19:00:29;38.90;;;17.17;;
19032;SDS011;9649;51.042;13.804;2023-03-01T19:05:35;33.60;;;16.33;;
19032;SDS011;9649;51.042;13.804;2023-03-01T19:10:46;33.37;;;16.80;;
19032;SDS011;9649;51.042;13.804;2023-03-01T19:16:04;33.97;;;16.27;;
19032;SDS011;9649;51.042;13.804;2023-03-01T19:21:14;34.83;;;17.67;;
19032;SDS011;9649;51.042;13.804;2023-03-01T19:26:23;36.67;;;18.17;;
19032;SDS011;9649;51.042;13.804;2023-03-01T19:31:32;42.63;;;18.37;;
19032;SDS011;9649;51.042;13.804;2023-03-01T19:54:53;52.17;;;21.43;;
19032;SDS011;9649;51.042;13.804;2023-03-01T20:26:14;43.90;;;22.90;;
19032;SDS011;9649;51.042;13.804;2023-03-01T20:31:48;48.87;;;22.57;;
19032;SDS011;9649;51.042;13.804;2023-03-01T20:36:57;48.50;;;22.57;;
19032;SDS011;9649;51.042;13.804;2023-03-01T20:42:07;50.57;;;22.47;;
19032;SDS011;9649;51.042;13.804;2023-03-01T20:47:14;50.77;;;23.27;;
19032;SDS011;9649;51.042;13.804;2023-03-01T20:52:22;48.53;;;22.57;;
19032;SDS011;9649;51.042;13.804;2023-03-01T20:57:33;47.83;;;23.00;;
19032;SDS011;9649;51.042;13.804;2023-03-01T21:02:38;45.23;;;22.50;;
19032;SDS011;9649;51.042;13.804;2023-03-01T21:07:43;44.53;;;22.43;;
19032;SDS011;9649;51.042;13.804;2023-03-01T21:12:49;48.83;;;23.70;;
19032;SDS011;9649;51.042;13.804;2023-03-01T21:17:56;41.63;;;20.87;;
19032;SDS011;9649;51.042;13.804;2023-03-01T21:23:00;41.07;;;20.07;;
19032;SDS011;9649;51.042;13.804;2023-03-01T21:28:06;43.53;;;21.97;;
19032;SDS011;9649;51.042;13.804;2023-03-01T21:33:10;43.30;;;20.77;;
19032;SDS011;9649;51.042;13.804;2023-03-01T22:37:10;44.57;;;20.53;;
19032;SDS011;9649;51.042;13.804;2023-03-01T22:42:13;39.03;;;18.93;;
19032;SDS011;9649;51.042;13.804;2023-03-01T22:47:15;40.43;;;20.63;;
19032;SDS011;9649;51.042;13.804;2023-03-01T22:52:19;37.97;;;19.30;;
19032;SDS011;9649;51.042;13.804;2023-03-01T22:57:22;38.50;;;19.00;;
19032;SDS011;9649;51.042;13.804;2023-03-01T23:02:25;43.17;;;19.97;;
19032;SDS011;9649;51.042;13.804;2023-03-01T23:07:29;41.43;;;19.93;;
19032;SDS011;9649;51.042;13.804;2023-03-01T23:12:32;46.47;;;20.13;;
19032;SDS011;9649;51.042;13.804;2023-03-01T23:17:35;39.47;;;19.37;;
19032;SDS011;9649;51.042;13.804;2023-03-01T23:22:39;45.63;;;21.03;;
19032;SDS011;9649;51.042;13.804;2023-03-01T23:27:42;43.63;;;19.53;;
19032;SDS011;9649;51.042;13.804;2023-03-01T23:32:45;35.93;;;17.67;;
19032;SDS011;9649;51.042;13.804;2023-03-01T23:37:49;37.67;;;17.73;;
19032;SDS011;9649;51.042;13.804;2023-03-01T23:42:51;41.13;;;20.10;;
19032;SDS011;9649;51.042;13.804;2023-03-01T23:47:54;38.50;;;18.03;;
19032;SDS011;9649;51.042;13.804;2023-03-01T23:52:58;36.83;;;18.87;;
19032;SDS011;9649;51.042;13.804;2023-03-01T23:58:01;39.87;;;18.97;;
